createdAt,value
2022-09-27T00:00:20.049Z,990.87
2022-09-27T00:01:20.100Z,990.88
2022-09-27T00:02:20.135Z,990.86
2022-09-27T00:03:20.058Z,990.91
2022-09-27T00:04:20.037Z,990.95
2022-09-27T00:05:20.034Z,990.98
2022-09-27T00:06:20.033Z,990.97
2022-09-27T00:07:20.028Z,990.98
2022-09-27T00:08:20.029Z,990.98
2022-09-27T00:09:20.027Z,990.97
2022-09-27T00:10:20.024Z,991.00
2022-09-27T00:11:20.014Z,990.99
2022-09-27T00:12:20.015Z,991.01
2022-09-27T00:13:20.008Z,991.02
2022-09-27T00:14:20.010Z,991.05
2022-09-27T00:15:20.004Z,991.07
2022-09-27T00:16:20.077Z,991.03
2022-09-27T00:17:20.007Z,991.09
2022-09-27T00:18:20.010Z,991.07
2022-09-27T00:19:20.009Z,991.10
2022-09-27T00:20:19.992Z,991.11
2022-09-27T00:21:19.988Z,991.13
2022-09-27T00:22:19.986Z,991.15
2022-09-27T00:23:19.978Z,991.19
2022-09-27T00:24:19.985Z,991.19
2022-09-27T00:25:19.978Z,991.19
2022-09-27T00:26:19.976Z,991.19
2022-09-27T00:27:19.975Z,991.18
2022-09-27T00:28:19.966Z,991.18
2022-09-27T00:29:19.966Z,991.20
2022-09-27T00:30:19.962Z,991.20
2022-09-27T00:31:20.014Z,991.23
2022-09-27T00:32:19.952Z,991.23
2022-09-27T00:33:19.947Z,991.23
2022-09-27T00:34:19.946Z,991.21
2022-09-27T00:35:19.969Z,991.29
2022-09-27T00:36:19.947Z,991.27
2022-09-27T00:37:19.941Z,991.27
2022-09-27T00:38:19.932Z,991.25
2022-09-27T00:39:19.943Z,991.27
2022-09-27T00:40:19.960Z,991.29
2022-09-27T00:41:19.922Z,991.27
2022-09-27T00:42:19.922Z,991.29
2022-09-27T00:43:19.916Z,991.27
2022-09-27T00:44:19.919Z,991.26
2022-09-27T00:45:19.909Z,991.27
2022-09-27T00:46:19.956Z,991.30
2022-09-27T00:47:19.904Z,991.32
2022-09-27T00:48:19.903Z,991.30
2022-09-27T00:49:19.900Z,991.28
2022-09-27T00:50:19.904Z,991.30
2022-09-27T00:51:19.911Z,991.26
2022-09-27T00:52:19.892Z,991.26
2022-09-27T00:53:19.888Z,991.26
2022-09-27T00:54:19.888Z,991.22
2022-09-27T00:55:19.886Z,991.22
2022-09-27T00:56:20.080Z,991.22
2022-09-27T00:57:19.881Z,991.22
2022-09-27T00:58:19.880Z,991.21
2022-09-27T00:59:19.870Z,991.21
2022-09-27T01:00:19.873Z,991.22
2022-09-27T01:01:19.942Z,991.24
2022-09-27T01:02:19.922Z,991.24
2022-09-27T01:03:19.864Z,991.25
2022-09-27T01:04:19.857Z,991.25
2022-09-27T01:05:19.851Z,991.21
2022-09-27T01:06:19.853Z,991.27
2022-09-27T01:07:19.867Z,991.26
2022-09-27T01:08:19.843Z,991.26
2022-09-27T01:09:19.841Z,991.28
2022-09-27T01:10:19.840Z,991.28
2022-09-27T01:11:19.834Z,991.31
2022-09-27T01:12:19.838Z,991.30
2022-09-27T01:13:19.828Z,991.32
2022-09-27T01:14:19.825Z,991.35
2022-09-27T01:15:19.822Z,991.35
2022-09-27T01:16:19.963Z,991.37
2022-09-27T01:17:19.817Z,991.40
2022-09-27T01:18:19.818Z,991.40
2022-09-27T01:19:19.811Z,991.38
2022-09-27T01:20:19.812Z,991.38
2022-09-27T01:21:19.806Z,991.45
2022-09-27T01:22:19.804Z,991.36
2022-09-27T01:23:19.820Z,991.39
2022-09-27T01:24:19.797Z,991.38
2022-09-27T01:25:19.795Z,991.37
2022-09-27T01:26:19.802Z,991.41
2022-09-27T01:27:19.792Z,991.40
2022-09-27T01:28:19.798Z,991.43
2022-09-27T01:29:19.782Z,991.42
2022-09-27T01:30:19.791Z,991.44
2022-09-27T01:31:19.919Z,991.46
2022-09-27T01:32:19.785Z,991.46
2022-09-27T01:33:19.773Z,991.41
2022-09-27T01:34:19.769Z,991.47
2022-09-27T01:35:19.763Z,991.44
2022-09-27T01:36:19.767Z,991.48
2022-09-27T01:37:19.761Z,991.46
2022-09-27T01:38:19.763Z,991.49
2022-09-27T01:39:19.769Z,991.47
2022-09-27T01:40:19.814Z,991.48
2022-09-27T01:41:19.748Z,991.44
2022-09-27T01:42:22.199Z,991.48
2022-09-27T01:43:19.739Z,991.48
2022-09-27T01:44:19.739Z,991.44
2022-09-27T01:45:19.735Z,991.45
2022-09-27T01:46:19.778Z,991.45
2022-09-27T01:47:19.727Z,991.46
2022-09-27T01:48:19.732Z,991.47
2022-09-27T01:49:19.734Z,991.46
2022-09-27T01:50:19.726Z,991.45
2022-09-27T01:51:19.717Z,991.49
2022-09-27T01:52:19.716Z,991.46
2022-09-27T01:53:19.710Z,991.49
2022-09-27T01:54:19.708Z,991.49
2022-09-27T01:55:19.723Z,991.50
2022-09-27T01:56:20.203Z,991.51
2022-09-27T01:57:19.696Z,991.49
2022-09-27T01:58:19.697Z,991.50
2022-09-27T01:59:19.690Z,991.52
2022-09-27T02:00:19.687Z,991.53
2022-09-27T02:01:19.775Z,991.52
2022-09-27T02:02:19.744Z,991.51
2022-09-27T02:03:19.679Z,991.58
2022-09-27T02:04:19.678Z,991.58
2022-09-27T02:05:19.676Z,991.56
2022-09-27T02:06:19.671Z,991.49
2022-09-27T02:07:19.666Z,991.53
2022-09-27T02:08:19.663Z,991.57
2022-09-27T02:09:19.660Z,991.55
2022-09-27T02:10:19.661Z,991.57
2022-09-27T02:11:19.673Z,991.55
2022-09-27T02:12:19.650Z,991.47
2022-09-27T02:13:19.648Z,991.55
2022-09-27T02:14:19.649Z,991.53
2022-09-27T02:15:19.641Z,991.58
2022-09-27T02:16:19.677Z,991.59
2022-09-27T02:17:19.636Z,991.59
2022-09-27T02:18:19.636Z,991.62
2022-09-27T02:19:19.631Z,991.60
2022-09-27T02:20:19.627Z,991.60
2022-09-27T02:21:19.627Z,991.63
2022-09-27T02:22:19.620Z,991.60
2022-09-27T02:23:19.617Z,991.61
2022-09-27T02:24:19.614Z,991.62
2022-09-27T02:25:19.616Z,991.62
2022-09-27T02:26:19.606Z,991.64
2022-09-27T02:27:19.623Z,991.59
2022-09-27T02:28:19.602Z,991.60
2022-09-27T02:29:19.608Z,991.62
2022-09-27T02:30:19.595Z,991.64
2022-09-27T02:31:19.688Z,991.62
2022-09-27T02:32:19.592Z,991.64
2022-09-27T02:33:19.590Z,991.63
2022-09-27T02:34:19.582Z,991.67
2022-09-27T02:35:19.580Z,991.65
2022-09-27T02:36:19.581Z,991.71
2022-09-27T02:37:19.582Z,991.71
2022-09-27T02:38:19.571Z,991.74
2022-09-27T02:39:19.571Z,991.75
2022-09-27T02:40:19.601Z,991.72
2022-09-27T02:41:19.588Z,991.72
2022-09-27T02:42:19.573Z,991.76
2022-09-27T02:43:19.577Z,991.76
2022-09-27T02:44:19.554Z,991.77
2022-09-27T02:45:19.552Z,991.76
2022-09-27T02:46:19.603Z,991.79
2022-09-27T02:47:19.543Z,991.80
2022-09-27T02:48:19.542Z,991.81
2022-09-27T02:49:19.539Z,991.81
2022-09-27T02:50:19.535Z,991.81
2022-09-27T02:51:19.531Z,991.87
2022-09-27T02:52:19.530Z,991.83
2022-09-27T02:53:19.527Z,991.86
2022-09-27T02:54:19.523Z,991.84
2022-09-27T02:55:19.520Z,991.80
2022-09-27T02:56:19.521Z,991.85
2022-09-27T02:57:19.516Z,991.87
2022-09-27T02:58:19.514Z,991.85
2022-09-27T02:59:19.528Z,991.86
2022-09-27T03:00:19.513Z,991.85
2022-09-27T03:01:19.534Z,991.86
2022-09-27T03:02:19.565Z,991.85
2022-09-27T03:03:19.502Z,991.84
2022-09-27T03:04:19.494Z,991.85
2022-09-27T03:05:19.492Z,991.85
2022-09-27T03:06:19.489Z,991.83
2022-09-27T03:07:19.484Z,991.88
2022-09-27T03:08:19.488Z,991.89
2022-09-27T03:09:19.492Z,991.91
2022-09-27T03:10:19.480Z,991.96
2022-09-27T03:11:19.475Z,991.94
2022-09-27T03:12:19.474Z,991.94
2022-09-27T03:13:19.468Z,991.90
2022-09-27T03:14:19.466Z,991.91
2022-09-27T03:15:19.480Z,991.96
2022-09-27T03:16:19.494Z,991.99
2022-09-27T03:17:19.454Z,991.96
2022-09-27T03:18:19.457Z,991.93
2022-09-27T03:19:19.448Z,991.88
2022-09-27T03:20:19.444Z,991.96
2022-09-27T03:21:19.446Z,991.94
2022-09-27T03:22:19.443Z,991.94
2022-09-27T03:23:19.436Z,991.95
2022-09-27T03:24:19.449Z,992.01
2022-09-27T03:25:19.433Z,991.97
2022-09-27T03:26:19.433Z,992.01
2022-09-27T03:27:19.429Z,992.02
2022-09-27T03:28:19.423Z,992.03
2022-09-27T03:29:19.422Z,992.04
2022-09-27T03:30:19.414Z,992.03
2022-09-27T03:31:19.500Z,992.02
2022-09-27T03:32:19.408Z,991.97
2022-09-27T03:33:19.408Z,991.97
2022-09-27T03:34:19.403Z,991.97
2022-09-27T03:35:19.408Z,992.00
2022-09-27T03:36:19.396Z,992.01
2022-09-27T03:37:19.398Z,992.06
2022-09-27T03:38:19.390Z,992.06
2022-09-27T03:39:19.393Z,992.09
2022-09-27T03:40:19.412Z,992.07
2022-09-27T03:41:19.384Z,992.08
2022-09-27T03:42:19.379Z,992.09
2022-09-27T03:43:19.375Z,992.12
2022-09-27T03:44:19.373Z,992.11
2022-09-27T03:45:19.371Z,992.14
2022-09-27T03:46:19.393Z,992.15
2022-09-27T03:47:19.390Z,992.16
2022-09-27T03:48:19.378Z,992.13
2022-09-27T03:49:19.359Z,992.14
2022-09-27T03:50:19.354Z,992.15
2022-09-27T03:51:19.349Z,992.13
2022-09-27T03:52:19.351Z,992.10
2022-09-27T03:53:19.354Z,992.12
2022-09-27T03:54:19.343Z,992.11
2022-09-27T03:55:19.345Z,992.10
2022-09-27T03:56:19.334Z,992.12
2022-09-27T03:57:19.332Z,992.13
2022-09-27T03:58:19.329Z,992.14
2022-09-27T03:59:19.338Z,992.14
2022-09-27T04:00:19.324Z,992.16
2022-09-27T04:01:19.379Z,992.20
2022-09-27T04:02:19.342Z,992.24
2022-09-27T04:03:19.334Z,992.20
2022-09-27T04:04:19.317Z,992.23
2022-09-27T04:05:19.309Z,992.22
2022-09-27T04:06:19.303Z,992.19
2022-09-27T04:07:19.300Z,992.23
2022-09-27T04:08:19.302Z,992.22
2022-09-27T04:09:19.298Z,992.25
2022-09-27T04:10:19.292Z,992.27
2022-09-27T04:11:19.294Z,992.24
2022-09-27T04:12:19.285Z,992.22
2022-09-27T04:13:19.285Z,992.22
2022-09-27T04:14:19.277Z,992.23
2022-09-27T04:15:19.275Z,992.18
2022-09-27T04:16:19.317Z,992.18
2022-09-27T04:17:19.269Z,992.25
2022-09-27T04:18:19.264Z,992.25
2022-09-27T04:19:19.281Z,992.21
2022-09-27T04:20:19.258Z,992.23
2022-09-27T04:21:19.257Z,992.27
2022-09-27T04:22:19.253Z,992.28
2022-09-27T04:23:19.250Z,992.25
2022-09-27T04:24:19.248Z,992.31
2022-09-27T04:25:19.252Z,992.26
2022-09-27T04:26:19.242Z,992.27
2022-09-27T04:27:19.241Z,992.29
2022-09-27T04:28:19.236Z,992.31
2022-09-27T04:29:19.237Z,992.30
2022-09-27T04:30:19.235Z,992.32
2022-09-27T04:31:19.300Z,992.39
2022-09-27T04:32:19.222Z,992.38
2022-09-27T04:33:19.221Z,992.35
2022-09-27T04:34:19.218Z,992.36
2022-09-27T04:35:19.233Z,992.40
2022-09-27T04:36:19.211Z,992.38
2022-09-27T04:37:19.207Z,992.41
2022-09-27T04:38:19.205Z,992.41
2022-09-27T04:39:19.202Z,992.40
2022-09-27T04:40:19.244Z,992.42
2022-09-27T04:41:19.199Z,992.40
2022-09-27T04:42:19.193Z,992.45
2022-09-27T04:43:19.194Z,992.39
2022-09-27T04:44:19.186Z,992.42
2022-09-27T04:45:19.183Z,992.46
2022-09-27T04:46:19.284Z,992.41
2022-09-27T04:47:19.181Z,992.44
2022-09-27T04:48:19.203Z,992.42
2022-09-27T04:49:19.305Z,992.43
2022-09-27T04:50:19.174Z,992.42
2022-09-27T04:51:19.186Z,992.42
2022-09-27T04:52:19.159Z,992.46
2022-09-27T04:53:19.164Z,992.53
2022-09-27T04:54:19.157Z,992.56
2022-09-27T04:55:19.153Z,992.57
2022-09-27T04:56:19.153Z,992.58
2022-09-27T04:57:19.157Z,992.58
2022-09-27T04:58:19.154Z,992.60
2022-09-27T04:59:19.220Z,992.62
2022-09-27T05:00:19.137Z,992.61
2022-09-27T05:01:19.239Z,992.64
2022-09-27T05:02:19.187Z,992.59
2022-09-27T05:03:19.131Z,992.59
2022-09-27T05:04:19.132Z,992.61
2022-09-27T05:05:19.125Z,992.60
2022-09-27T05:06:19.122Z,992.59
2022-09-27T05:07:19.138Z,992.60
2022-09-27T05:08:19.114Z,992.55
2022-09-27T05:09:19.113Z,992.63
2022-09-27T05:10:19.110Z,992.65
2022-09-27T05:11:19.103Z,992.64
2022-09-27T05:12:19.102Z,992.67
2022-09-27T05:13:19.108Z,992.65
2022-09-27T05:14:19.163Z,992.68
2022-09-27T05:15:19.090Z,992.71
2022-09-27T05:16:19.135Z,992.71
2022-09-27T05:17:19.082Z,992.76
2022-09-27T05:18:19.085Z,992.75
2022-09-27T05:19:19.079Z,992.77
2022-09-27T05:20:19.087Z,992.76
2022-09-27T05:21:19.070Z,992.76
2022-09-27T05:22:19.067Z,992.81
2022-09-27T05:23:19.085Z,992.75
2022-09-27T05:24:19.061Z,992.77
2022-09-27T05:25:19.060Z,992.75
2022-09-27T05:26:19.055Z,992.78
2022-09-27T05:27:19.056Z,992.82
2022-09-27T05:28:19.048Z,992.85
2022-09-27T05:29:19.049Z,992.86
2022-09-27T05:30:19.044Z,992.81
2022-09-27T05:31:19.089Z,992.85
2022-09-27T05:32:19.103Z,992.85
2022-09-27T05:33:19.035Z,992.88
2022-09-27T05:34:19.034Z,992.90
2022-09-27T05:35:19.030Z,992.90
2022-09-27T05:36:19.025Z,992.98
2022-09-27T05:37:19.024Z,992.92
2022-09-27T05:38:19.022Z,992.90
2022-09-27T05:39:19.036Z,992.93
2022-09-27T05:40:39.795Z,992.91
2022-09-27T05:41:19.099Z,992.93
2022-09-27T05:42:19.005Z,992.94
2022-09-27T05:43:19.001Z,992.91
2022-09-27T05:44:18.999Z,992.99
2022-09-27T05:45:18.996Z,992.97
2022-09-27T05:46:19.037Z,993.02
2022-09-27T05:47:18.992Z,993.02
2022-09-27T05:48:18.985Z,993.07
2022-09-27T05:49:18.985Z,993.00
2022-09-27T05:50:18.988Z,993.07
2022-09-27T05:51:18.976Z,993.06
2022-09-27T05:52:20.224Z,993.09
2022-09-27T05:53:18.972Z,993.08
2022-09-27T05:54:18.971Z,993.10
2022-09-27T05:55:18.983Z,993.08
2022-09-27T05:56:18.959Z,993.08
2022-09-27T05:57:18.962Z,993.06
2022-09-27T05:58:18.961Z,993.10
2022-09-27T05:59:18.977Z,993.14
2022-09-27T06:00:18.950Z,993.12
2022-09-27T06:01:18.997Z,993.14
2022-09-27T06:02:18.982Z,993.12
2022-09-27T06:03:18.942Z,993.05
2022-09-27T06:04:18.938Z,993.07
2022-09-27T06:05:18.936Z,993.13
2022-09-27T06:06:18.930Z,993.12
2022-09-27T06:07:18.927Z,993.10
2022-09-27T06:08:18.922Z,993.09
2022-09-27T06:09:18.925Z,993.07
2022-09-27T06:10:18.916Z,993.09
2022-09-27T06:11:18.933Z,993.12
2022-09-27T06:12:18.913Z,993.13
2022-09-27T06:13:18.914Z,993.16
2022-09-27T06:14:18.907Z,993.14
2022-09-27T06:15:18.901Z,993.12
2022-09-27T06:16:18.968Z,993.13
2022-09-27T06:17:18.897Z,993.12
2022-09-27T06:18:18.895Z,993.16
2022-09-27T06:19:18.892Z,993.11
2022-09-27T06:20:18.889Z,993.07
2022-09-27T06:21:18.882Z,993.08
2022-09-27T06:22:18.881Z,993.12
2022-09-27T06:23:18.879Z,993.10
2022-09-27T06:24:18.874Z,993.15
2022-09-27T06:25:18.873Z,993.12
2022-09-27T06:26:18.867Z,993.14
2022-09-27T06:27:18.886Z,993.13
2022-09-27T06:28:18.866Z,993.16
2022-09-27T06:29:18.862Z,993.16
2022-09-27T06:30:20.541Z,993.21
2022-09-27T06:31:18.884Z,993.15
2022-09-27T06:32:18.847Z,993.13
2022-09-27T06:33:18.847Z,993.13
2022-09-27T06:34:18.843Z,993.13
2022-09-27T06:35:18.838Z,993.15
2022-09-27T06:36:18.840Z,993.18
2022-09-27T06:37:18.832Z,993.15
2022-09-27T06:38:18.835Z,993.17
2022-09-27T06:39:18.826Z,993.18
2022-09-27T06:40:18.897Z,993.21
2022-09-27T06:41:18.820Z,993.17
2022-09-27T06:42:18.826Z,993.20
2022-09-27T06:43:18.835Z,993.24
2022-09-27T06:44:18.825Z,993.28
2022-09-27T06:45:18.812Z,993.23
2022-09-27T06:46:19.229Z,993.23
2022-09-27T06:47:18.800Z,993.28
2022-09-27T06:48:18.803Z,993.30
2022-09-27T06:49:18.795Z,993.28
2022-09-27T06:50:18.794Z,993.33
2022-09-27T06:51:18.793Z,993.31
2022-09-27T06:52:18.786Z,993.31
2022-09-27T06:53:18.786Z,993.29
2022-09-27T06:54:18.784Z,993.30
2022-09-27T06:55:18.777Z,993.36
2022-09-27T06:56:18.774Z,993.36
2022-09-27T06:57:18.770Z,993.32
2022-09-27T06:58:18.772Z,993.36
2022-09-27T06:59:18.782Z,993.34
2022-09-27T07:00:18.764Z,993.39
2022-09-27T07:01:18.811Z,993.44
2022-09-27T07:02:18.828Z,993.44
2022-09-27T07:03:18.757Z,993.41
2022-09-27T07:04:18.750Z,993.42
2022-09-27T07:05:18.745Z,993.45
2022-09-27T07:06:18.748Z,993.50
2022-09-27T07:07:18.737Z,993.55
2022-09-27T07:08:18.741Z,993.53
2022-09-27T07:09:18.735Z,993.55
2022-09-27T07:10:18.731Z,993.57
2022-09-27T07:11:18.729Z,993.60
2022-09-27T07:12:18.724Z,993.57
2022-09-27T07:13:18.720Z,993.57
2022-09-27T07:14:18.719Z,993.60
2022-09-27T07:15:18.831Z,993.66
2022-09-27T07:16:18.751Z,993.67
2022-09-27T07:17:18.707Z,993.69
2022-09-27T07:18:18.705Z,993.76
2022-09-27T07:19:18.701Z,993.73
2022-09-27T07:20:18.724Z,993.75
2022-09-27T07:21:18.694Z,993.73
2022-09-27T07:22:18.694Z,993.75
2022-09-27T07:23:18.690Z,993.77
2022-09-27T07:24:18.690Z,993.75
2022-09-27T07:25:18.681Z,993.76
2022-09-27T07:26:18.687Z,993.75
2022-09-27T07:27:18.674Z,993.77
2022-09-27T07:28:22.138Z,993.78
2022-09-27T07:29:18.671Z,993.77
2022-09-27T07:30:18.665Z,993.76
2022-09-27T07:31:18.701Z,993.77
2022-09-27T07:32:18.662Z,993.76
2022-09-27T07:33:18.655Z,993.74
2022-09-27T07:34:18.654Z,993.77
2022-09-27T07:35:18.649Z,993.72
2022-09-27T07:36:18.647Z,993.78
2022-09-27T07:37:18.649Z,993.75
2022-09-27T07:38:18.643Z,993.79
2022-09-27T07:39:18.637Z,993.77
2022-09-27T07:40:18.693Z,993.81
2022-09-27T07:41:18.630Z,993.81
2022-09-27T07:42:18.628Z,993.76
2022-09-27T07:43:18.622Z,993.78
2022-09-27T07:44:18.623Z,993.79
2022-09-27T07:45:18.619Z,993.80
2022-09-27T07:46:18.651Z,993.84
2022-09-27T07:47:18.636Z,993.84
2022-09-27T07:48:18.608Z,993.83
2022-09-27T07:49:18.606Z,993.87
2022-09-27T07:50:18.604Z,993.89
2022-09-27T07:51:19.105Z,993.86
2022-09-27T07:52:18.598Z,993.82
2022-09-27T07:53:18.592Z,993.86
2022-09-27T07:54:18.592Z,993.87
2022-09-27T07:55:18.585Z,993.83
2022-09-27T07:56:18.584Z,993.88
2022-09-27T07:57:18.580Z,993.88
2022-09-27T07:58:18.581Z,993.86
2022-09-27T07:59:18.577Z,993.89
2022-09-27T08:00:18.614Z,993.94
2022-09-27T08:01:18.711Z,993.90
2022-09-27T08:02:18.635Z,993.92
2022-09-27T08:03:18.583Z,993.95
2022-09-27T08:04:18.558Z,993.97
2022-09-27T08:05:18.558Z,994.01
2022-09-27T08:06:18.556Z,994.02
2022-09-27T08:07:18.576Z,994.00
2022-09-27T08:08:18.549Z,994.06
2022-09-27T08:09:18.543Z,994.08
2022-09-27T08:10:18.544Z,994.02
2022-09-27T08:11:18.544Z,994.04
2022-09-27T08:12:18.537Z,994.05
2022-09-27T08:13:18.532Z,994.06
2022-09-27T08:14:18.529Z,994.06
2022-09-27T08:15:18.525Z,994.06
2022-09-27T08:16:18.575Z,994.11
2022-09-27T08:17:18.520Z,994.09
2022-09-27T08:18:18.517Z,994.10
2022-09-27T08:19:18.550Z,994.16
2022-09-27T08:20:18.519Z,994.16
2022-09-27T08:21:18.518Z,994.19
2022-09-27T08:22:18.506Z,994.17
2022-09-27T08:23:18.501Z,994.24
2022-09-27T08:24:18.500Z,994.24
2022-09-27T08:25:18.493Z,994.23
2022-09-27T08:26:18.492Z,994.24
2022-09-27T08:27:18.487Z,994.26
2022-09-27T08:28:18.489Z,994.27
2022-09-27T08:29:18.481Z,994.31
2022-09-27T08:30:18.484Z,994.30
2022-09-27T08:31:18.562Z,994.37
2022-09-27T08:32:22.965Z,994.32
2022-09-27T08:33:18.471Z,994.40
2022-09-27T08:34:18.468Z,994.37
2022-09-27T08:35:18.483Z,994.35
2022-09-27T08:36:18.465Z,994.34
2022-09-27T08:37:18.458Z,994.35
2022-09-27T08:38:18.460Z,994.38
2022-09-27T08:39:18.455Z,994.34
2022-09-27T08:40:18.503Z,994.36
2022-09-27T08:41:18.449Z,994.40
2022-09-27T08:42:18.445Z,994.37
2022-09-27T08:43:18.439Z,994.35
2022-09-27T08:44:18.440Z,994.35
2022-09-27T08:45:18.435Z,994.31
2022-09-27T08:46:18.433Z,994.33
2022-09-27T08:47:18.432Z,994.31
2022-09-27T08:48:18.424Z,994.35
2022-09-27T08:49:18.422Z,994.34
2022-09-27T08:50:18.421Z,994.39
2022-09-27T08:51:18.440Z,994.35
2022-09-27T08:52:18.415Z,994.38
2022-09-27T08:53:18.416Z,994.36
2022-09-27T08:54:18.411Z,994.38
2022-09-27T08:55:18.402Z,994.40
2022-09-27T08:56:18.400Z,994.39
2022-09-27T08:57:18.399Z,994.39
2022-09-27T08:58:18.398Z,994.41
2022-09-27T08:59:18.396Z,994.44
2022-09-27T09:00:18.394Z,994.42
2022-09-27T09:01:18.444Z,994.41
2022-09-27T09:02:18.414Z,994.42
2022-09-27T09:03:18.385Z,994.44
2022-09-27T09:04:18.378Z,994.45
2022-09-27T09:05:18.373Z,994.41
2022-09-27T09:06:18.375Z,994.41
2022-09-27T09:07:18.387Z,994.39
2022-09-27T09:08:18.471Z,994.43
2022-09-27T09:09:18.361Z,994.46
2022-09-27T09:10:18.371Z,994.41
2022-09-27T09:11:18.357Z,994.43
2022-09-27T09:12:18.369Z,994.46
2022-09-27T09:13:18.349Z,994.40
2022-09-27T09:14:18.791Z,994.43
2022-09-27T09:15:18.341Z,994.42
2022-09-27T09:16:18.387Z,994.43
2022-09-27T09:17:18.335Z,994.40
2022-09-27T09:18:18.342Z,994.41
2022-09-27T09:19:18.331Z,994.44
2022-09-27T09:20:18.333Z,994.38
2022-09-27T09:21:18.325Z,994.40
2022-09-27T09:22:18.321Z,994.37
2022-09-27T09:23:18.393Z,994.35
2022-09-27T09:24:18.318Z,994.40
2022-09-27T09:25:18.312Z,994.37
2022-09-27T09:26:18.310Z,994.36
2022-09-27T09:27:18.305Z,994.30
2022-09-27T09:28:18.302Z,994.30
2022-09-27T09:29:18.301Z,994.31
2022-09-27T09:30:18.302Z,994.28
2022-09-27T09:31:18.324Z,994.31
2022-09-27T09:32:18.296Z,994.27
2022-09-27T09:33:18.291Z,994.29
2022-09-27T09:34:18.297Z,994.30
2022-09-27T09:35:18.280Z,994.33
2022-09-27T09:36:18.287Z,994.30
2022-09-27T09:37:18.730Z,994.31
2022-09-27T09:38:18.281Z,994.31
2022-09-27T09:39:18.518Z,994.33
2022-09-27T09:40:18.313Z,994.30
2022-09-27T09:41:18.263Z,994.34
2022-09-27T09:42:18.271Z,994.34
2022-09-27T09:43:18.259Z,994.30
2022-09-27T09:44:18.260Z,994.26
2022-09-27T09:45:18.255Z,994.28
2022-09-27T09:46:18.253Z,994.29
2022-09-27T09:47:18.246Z,994.23
2022-09-27T09:48:18.245Z,994.23
2022-09-27T09:49:18.236Z,994.24
2022-09-27T09:50:18.238Z,994.21
2022-09-27T09:51:18.236Z,994.21
2022-09-27T09:52:18.239Z,994.19
2022-09-27T09:53:18.226Z,994.22
2022-09-27T09:54:18.226Z,994.22
2022-09-27T09:55:18.239Z,994.23
2022-09-27T09:56:18.223Z,994.22
2022-09-27T09:57:18.220Z,994.19
2022-09-27T09:58:20.036Z,994.17
2022-09-27T09:59:18.214Z,994.18
2022-09-27T10:00:18.208Z,994.14
2022-09-27T10:01:18.291Z,994.18
2022-09-27T10:02:18.347Z,994.23
2022-09-27T10:03:18.197Z,994.14
2022-09-27T10:04:18.198Z,994.18
2022-09-27T10:05:18.208Z,994.22
2022-09-27T10:06:18.194Z,994.14
2022-09-27T10:07:18.190Z,994.14
2022-09-27T10:08:18.183Z,994.10
2022-09-27T10:09:18.252Z,994.14
2022-09-27T10:10:18.184Z,994.14
2022-09-27T10:11:18.199Z,994.15
2022-09-27T10:12:18.173Z,994.17
2022-09-27T10:13:18.178Z,994.11
2022-09-27T10:14:18.172Z,994.08
2022-09-27T10:15:18.163Z,994.06
2022-09-27T10:16:18.209Z,994.07
2022-09-27T10:17:18.161Z,994.06
2022-09-27T10:18:18.159Z,994.05
2022-09-27T10:19:18.151Z,994.01
2022-09-27T10:20:18.150Z,994.03
2022-09-27T10:21:18.147Z,993.99
2022-09-27T10:22:18.148Z,993.97
2022-09-27T10:23:18.144Z,993.97
2022-09-27T10:24:18.973Z,993.92
2022-09-27T10:25:18.135Z,993.88
2022-09-27T10:26:18.135Z,993.90
2022-09-27T10:27:18.151Z,993.94
2022-09-27T10:28:18.129Z,993.87
2022-09-27T10:29:18.124Z,993.96
2022-09-27T10:30:18.137Z,993.97
2022-09-27T10:31:18.238Z,993.99
2022-09-27T10:32:18.131Z,994.02
2022-09-27T10:33:18.111Z,994.10
2022-09-27T10:34:18.112Z,994.07
2022-09-27T10:35:21.503Z,994.05
2022-09-27T10:36:18.105Z,994.06
2022-09-27T10:37:18.100Z,994.04
2022-09-27T10:38:18.103Z,994.07
2022-09-27T10:39:18.093Z,994.07
2022-09-27T10:40:18.115Z,994.05
2022-09-27T10:41:18.088Z,994.06
2022-09-27T10:42:18.087Z,994.09
2022-09-27T10:43:18.104Z,994.05
2022-09-27T10:44:18.353Z,994.10
2022-09-27T10:45:18.077Z,994.08
2022-09-27T10:46:18.076Z,994.09
2022-09-27T10:47:18.070Z,994.08
2022-09-27T10:48:18.071Z,994.09
2022-09-27T10:49:18.071Z,994.08
2022-09-27T10:50:32.738Z,994.06
2022-09-27T10:51:18.063Z,994.03
2022-09-27T10:52:18.059Z,994.03
2022-09-27T10:53:18.054Z,993.98
2022-09-27T10:54:18.050Z,994.01
2022-09-27T10:55:18.050Z,994.00
2022-09-27T10:56:18.497Z,993.96
2022-09-27T10:57:18.046Z,993.96
2022-09-27T10:58:18.039Z,993.94
2022-09-27T10:59:18.078Z,993.94
2022-09-27T11:00:18.033Z,994.01
2022-09-27T11:01:18.059Z,993.95
2022-09-27T11:02:18.027Z,993.93
2022-09-27T11:03:18.027Z,993.99
2022-09-27T11:04:18.229Z,993.96
2022-09-27T11:05:18.036Z,993.97
2022-09-27T11:06:18.015Z,993.99
2022-09-27T11:07:18.013Z,993.97
2022-09-27T11:08:18.009Z,993.93
2022-09-27T11:09:18.015Z,993.93
2022-09-27T11:10:18.064Z,993.95
2022-09-27T11:11:18.004Z,993.92
2022-09-27T11:12:18.004Z,993.96
2022-09-27T11:13:17.996Z,994.01
2022-09-27T11:14:17.991Z,993.94
2022-09-27T11:15:18.015Z,994.03
2022-09-27T11:16:18.044Z,994.02
2022-09-27T11:17:17.986Z,993.99
2022-09-27T11:18:17.982Z,993.94
2022-09-27T11:19:17.978Z,993.96
2022-09-27T11:20:18.112Z,993.94
2022-09-27T11:21:17.981Z,993.94
2022-09-27T11:22:17.968Z,993.92
2022-09-27T11:23:17.972Z,993.98
2022-09-27T11:24:17.966Z,993.88
2022-09-27T11:25:17.962Z,993.96
2022-09-27T11:26:17.960Z,993.94
2022-09-27T11:27:17.961Z,993.96
2022-09-27T11:28:17.956Z,993.92
2022-09-27T11:29:17.951Z,993.88
2022-09-27T11:30:18.002Z,993.90
2022-09-27T11:31:20.053Z,993.89
2022-09-27T11:32:17.940Z,993.91
2022-09-27T11:33:17.940Z,993.90
2022-09-27T11:34:17.940Z,993.89
2022-09-27T11:35:17.935Z,993.88
2022-09-27T11:36:17.931Z,993.89
2022-09-27T11:37:17.925Z,993.87
2022-09-27T11:38:34.609Z,993.88
2022-09-27T11:39:18.113Z,993.89
2022-09-27T11:40:17.998Z,993.89
2022-09-27T11:41:17.918Z,993.84
2022-09-27T11:42:17.922Z,993.85
2022-09-27T11:43:17.912Z,993.84
2022-09-27T11:44:17.909Z,993.83
2022-09-27T11:45:50.312Z,993.81
2022-09-27T11:46:26.038Z,993.81
2022-09-27T11:47:18.086Z,993.83
2022-09-27T11:48:17.894Z,993.80
2022-09-27T11:49:17.892Z,993.76
2022-09-27T11:50:17.896Z,993.75
2022-09-27T11:51:17.885Z,993.75
2022-09-27T11:52:17.882Z,993.76
2022-09-27T11:53:17.884Z,993.76
2022-09-27T11:54:17.884Z,993.77
2022-09-27T11:55:17.894Z,993.75
2022-09-27T11:56:17.876Z,993.75
2022-09-27T11:57:17.880Z,993.74
2022-09-27T11:58:17.869Z,993.70
2022-09-27T11:59:22.451Z,993.70
2022-09-27T12:00:17.863Z,993.68
2022-09-27T12:01:17.863Z,993.72
2022-09-27T12:02:17.958Z,993.72
2022-09-27T12:03:17.876Z,993.71
2022-09-27T12:04:17.847Z,993.70
2022-09-27T12:05:17.850Z,993.66
2022-09-27T12:06:17.844Z,993.70
2022-09-27T12:07:17.848Z,993.64
2022-09-27T12:08:17.836Z,993.63
2022-09-27T12:09:17.837Z,993.67
2022-09-27T12:10:18.060Z,993.61
2022-09-27T12:11:17.838Z,993.59
2022-09-27T12:12:17.827Z,993.60
2022-09-27T12:13:17.828Z,993.61
2022-09-27T12:14:17.833Z,993.62
2022-09-27T12:15:17.820Z,993.59
2022-09-27T12:16:17.898Z,993.68
2022-09-27T12:17:17.815Z,993.63
2022-09-27T12:18:17.824Z,993.64
2022-09-27T12:19:17.828Z,993.60
2022-09-27T12:20:17.807Z,993.58
2022-09-27T12:21:17.808Z,993.58
2022-09-27T12:22:25.948Z,993.57
2022-09-27T12:23:17.800Z,993.57
2022-09-27T12:24:17.798Z,993.54
2022-09-27T12:25:20.789Z,993.59
2022-09-27T12:26:17.787Z,993.58
2022-09-27T12:27:17.794Z,993.59
2022-09-27T12:28:17.783Z,993.56